^^
Saratoga-Weather Station Historical Data
Daily Summary for November 11, 2021 Units:  Metric    English   Both
Daily Weekly Monthly Yearly Custom
  High: Low: Average:
Temperature: 3 °C -1.1 °C 1 °C
Dew Point: 2.6 °C -1.7 °C 0.5 °C
Humidity: 98% 96% 97%
Wind Speed: 4.7km/h 0km/h 0.6km/h
Wind Gust: 6.4km/h - -
Wind- - ESE
Pressure: 1025.7 hPa 1023.4 hPa -
Precipitation: 0.2 mm    
Historical Graphs
 
 
Tabular Data for November 11, 2021
Time Temperature Dew Point Pressure Wind Wind Speed Wind Gust Humidity Rainfall Rate (Hourly) solar
00:01 0.9 °C 0.3 °C 1024.4 hPa Calm     96% 0.0 mm 0 W/m2
00:06 0.9 °C 0.3 °C 1024.4 hPa Calm     96% 0.0 mm 0 W/m2
00:11 0.9 °C 0.3 °C 1024.4 hPa Calm     96% 0.0 mm 0 W/m2
00:16 0.8 °C 0.2 °C 1024.0 hPa Calm     96% 0.0 mm 0 W/m2
00:21 0.8 °C 0.2 °C 1024.0 hPa Calm     96% 0.0 mm 0 W/m2
00:26 0.8 °C 0.2 °C 1024.0 hPa Calm     96% 0.0 mm 0 W/m2
00:31 0.7 °C 0.1 °C 1024.0 hPa Calm     96% 0.0 mm 0 W/m2
00:36 0.7 °C 0.1 °C 1024.0 hPa SSE 3.2 km/h 3.2 km/h 96% 0.0 mm 0 W/m2
00:41 0.7 °C 0.1 °C 1024.0 hPa Calm   3.2 km/h 96% 0.0 mm 0 W/m2
00:46 0.8 °C 0.2 °C 1023.7 hPa Calm     96% 0.0 mm 0 W/m2
00:51 0.7 °C 0.1 °C 1023.7 hPa Calm   3.2 km/h 96% 0.0 mm 0 W/m2
00:56 0.7 °C 0.1 °C 1023.7 hPa Calm     96% 0.0 mm 0 W/m2
01:01 0.6 °C 0 °C 1023.7 hPa Calm     96% 0.0 mm 0 W/m2
01:06 0.5 °C -0.1 °C 1023.7 hPa SSW 1.4 km/h 3.2 km/h 96% 0.0 mm 0 W/m2
01:11 0.4 °C -0.2 °C 1023.7 hPa SSW 1.4 km/h 3.2 km/h 96% 0.0 mm 0 W/m2
01:16 0.5 °C -0.1 °C 1023.7 hPa Calm     96% 0.0 mm 0 W/m2
01:21 0.5 °C -0.1 °C 1023.7 hPa Calm   3.2 km/h 96% 0.0 mm 0 W/m2
01:26 0.5 °C -0.1 °C 1023.7 hPa Calm     96% 0.0 mm 0 W/m2
01:31 0.5 °C -0.1 °C 1023.7 hPa Calm     96% 0.0 mm 0 W/m2
01:36 0.4 °C -0.2 °C 1023.7 hPa Calm     96% 0.0 mm 0 W/m2
01:41 0.4 °C -0.2 °C 1023.7 hPa Calm     96% 0.0 mm 0 W/m2
01:46 0.3 °C -0.3 °C 1023.7 hPa Calm     96% 0.0 mm 0 W/m2
01:51 0.3 °C -0.3 °C 1023.7 hPa Calm     96% 0.0 mm 0 W/m2
01:56 0.2 °C -0.4 °C 1023.7 hPa Calm     96% 0.0 mm 0 W/m2
02:01 0.2 °C -0.4 °C 1023.7 hPa Calm     96% 0.0 mm 0 W/m2
02:06 0.1 °C -0.5 °C 1023.7 hPa Calm     96% 0.0 mm 0 W/m2
02:11 0 °C -0.6 °C 1023.7 hPa Calm     96% 0.0 mm 0 W/m2
02:16 -0.1 °C -0.7 °C 1023.7 hPa Calm     96% 0.0 mm 0 W/m2
02:21 -0.1 °C -0.7 °C 1024.0 hPa Calm     96% 0.0 mm 0 W/m2
02:26 -0.2 °C -0.8 °C 1023.7 hPa Calm     96% 0.0 mm 0 W/m2
02:31 -0.3 °C -0.9 °C 1023.7 hPa Calm     96% 0.0 mm 0 W/m2
02:36 -0.3 °C -0.9 °C 1023.7 hPa Calm     96% 0.0 mm 0 W/m2
02:42 -0.3 °C -0.9 °C 1023.7 hPa Calm     96% 0.0 mm 0 W/m2
02:47 -0.3 °C -0.9 °C 1023.7 hPa Calm     96% 0.0 mm 0 W/m2
02:52 -0.3 °C -0.9 °C 1023.7 hPa Calm     96% 0.0 mm 0 W/m2
02:57 -0.3 °C -0.9 °C 1023.7 hPa Calm     96% 0.0 mm 0 W/m2
03:02 -0.3 °C -0.9 °C 1023.7 hPa Calm     96% 0.0 mm 0 W/m2
03:07 -0.3 °C -0.9 °C 1023.7 hPa Calm     96% 0.0 mm 0 W/m2
03:12 -0.4 °C -1 °C 1023.7 hPa Calm     96% 0.0 mm 0 W/m2
03:17 -0.4 °C -1 °C 1023.7 hPa Calm     96% 0.0 mm 0 W/m2
03:22 -0.4 °C -1 °C 1023.7 hPa Calm     96% 0.0 mm 0 W/m2
03:27 -0.4 °C -1 °C 1023.7 hPa Calm     96% 0.0 mm 0 W/m2
03:32 -0.4 °C -1 °C 1023.7 hPa Calm     96% 0.0 mm 0 W/m2
03:37 -0.4 °C -1 °C 1023.7 hPa Calm     96% 0.0 mm 0 W/m2
03:42 -0.4 °C -1 °C 1023.7 hPa Calm     96% 0.0 mm 0 W/m2
03:47 -0.4 °C -1 °C 1023.7 hPa Calm     96% 0.0 mm 0 W/m2
03:52 -0.5 °C -1.1 °C 1023.7 hPa Calm     96% 0.0 mm 0 W/m2
03:57 -0.6 °C -1.2 °C 1023.4 hPa Calm     96% 0.0 mm 0 W/m2
04:02 -0.6 °C -1.2 °C 1023.4 hPa Calm     96% 0.0 mm 0 W/m2
04:07 -0.6 °C -1.2 °C 1023.4 hPa Calm     96% 0.0 mm 0 W/m2
04:12 -0.7 °C -1.3 °C 1023.4 hPa Calm     96% 0.0 mm 0 W/m2
04:17 -0.7 °C -1.3 °C 1023.4 hPa SSW 1.4 km/h 3.2 km/h 96% 0.0 mm 0 W/m2
04:22 -0.8 °C -1.4 °C 1023.4 hPa Calm   1.6 km/h 96% 0.0 mm 0 W/m2
04:27 -0.8 °C -1.4 °C 1023.4 hPa Calm     96% 0.0 mm 0 W/m2
04:32 -0.9 °C -1.5 °C 1023.4 hPa Calm     96% 0.0 mm 0 W/m2
04:37 -1 °C -1.6 °C 1023.4 hPa Calm     96% 0.0 mm 0 W/m2
04:42 -1.1 °C -1.7 °C 1023.4 hPa Calm     96% 0.0 mm 0 W/m2
04:47 -1.1 °C -1.7 °C 1023.4 hPa Calm     96% 0.0 mm 0 W/m2
04:52 -1.1 °C -1.7 °C 1023.4 hPa Calm     96% 0.0 mm 0 W/m2
04:57 -1.1 °C -1.7 °C 1023.4 hPa Calm     96% 0.0 mm 0 W/m2
05:02 -1.1 °C -1.7 °C 1023.4 hPa Calm     96% 0.0 mm 0 W/m2
05:07 -1.1 °C -1.7 °C 1023.4 hPa SE 1.4 km/h 3.2 km/h 96% 0.0 mm 0 W/m2
05:12 -1 °C -1.6 °C 1023.4 hPa Calm   1.6 km/h 96% 0.0 mm 0 W/m2
05:17 -0.9 °C -1.5 °C 1023.7 hPa SE 1.4 km/h 1.6 km/h 96% 0.0 mm 0 W/m2
05:22 -0.9 °C -1.5 °C 1023.7 hPa Calm   1.6 km/h 96% 0.0 mm 0 W/m2
05:27 -0.9 °C -1.5 °C 1024.0 hPa Calm     96% 0.0 mm 0 W/m2
05:32 -0.9 °C -1.5 °C 1024.0 hPa Calm   1.6 km/h 96% 0.0 mm 0 W/m2
05:37 -0.8 °C -1.4 °C 1024.0 hPa Calm     96% 0.0 mm 0 W/m2
05:42 -0.8 °C -1.4 °C 1024.0 hPa Calm     96% 0.0 mm 0 W/m2
05:47 -0.8 °C -1.4 °C 1024.0 hPa Calm     96% 0.0 mm 0 W/m2
05:52 -0.8 °C -1.4 °C 1024.0 hPa Calm   1.6 km/h 96% 0.0 mm 0 W/m2
05:57 -0.8 °C -1.4 °C 1024.0 hPa Calm     96% 0.0 mm 0 W/m2
06:02 -0.8 °C -1.2 °C 1024.0 hPa Calm     97% 0.0 mm 0 W/m2
06:07 -0.7 °C -1.1 °C 1024.4 hPa Calm     97% 0.0 mm 0 W/m2
06:12 -0.7 °C -1.1 °C 1024.4 hPa Calm     97% 0.0 mm 0 W/m2
06:17 -0.7 °C -1.1 °C 1024.4 hPa Calm     97% 0.0 mm 0 W/m2
06:22 -0.7 °C -1.1 °C 1024.4 hPa Calm     97% 0.0 mm 0 W/m2
06:27 -0.7 °C -1.1 °C 1024.4 hPa Calm     97% 0.0 mm 0 W/m2
06:32 -0.6 °C -1 °C 1024.4 hPa Calm     97% 0.0 mm 0 W/m2
06:37 -0.6 °C -1 °C 1024.4 hPa Calm     97% 0.0 mm 0 W/m2
06:42 -0.6 °C -1 °C 1024.0 hPa Calm     97% 0.0 mm 0 W/m2
06:47 -0.6 °C -1 °C 1024.4 hPa Calm     97% 0.0 mm 0 W/m2
06:52 -0.6 °C -1 °C 1024.4 hPa Calm     97% 0.0 mm 0 W/m2
06:57 -0.6 °C -1 °C 1024.4 hPa Calm     97% 0.0 mm 0 W/m2
07:02 -0.6 °C -1 °C 1024.0 hPa Calm     97% 0.0 mm 0 W/m2
07:07 -0.6 °C -1.2 °C 1024.4 hPa Calm     96% 0.0 mm 0 W/m2
07:12 -0.5 °C -1.1 °C 1024.4 hPa Calm     96% 0.0 mm 0 W/m2
07:17 -0.4 °C -0.8 °C 1024.0 hPa WNW 1.4 km/h 3.2 km/h 97% 0.0 mm 0 W/m2
07:22 -0.4 °C -0.8 °C 1024.0 hPa Calm     97% 0.0 mm 0 W/m2
07:27 -0.3 °C -0.7 °C 1024.0 hPa Calm   1.6 km/h 97% 0.0 mm 0 W/m2
07:32 -0.3 °C -0.9 °C 1024.4 hPa Calm     96% 0.0 mm 0 W/m2
07:37 -0.3 °C -0.7 °C 1024.4 hPa Calm     97% 0.0 mm 0 W/m2
07:42 -0.3 °C -0.7 °C 1024.4 hPa Calm     97% 0.0 mm 0 W/m2
07:47 -0.3 °C -0.7 °C 1024.7 hPa Calm     97% 0.0 mm 5 W/m2
07:52 -0.3 °C -0.7 °C 1024.7 hPa Calm     97% 0.0 mm 7 W/m2
07:57 -0.3 °C -0.7 °C 1024.7 hPa Calm     97% 0.0 mm 9 W/m2
08:02 -0.3 °C -0.7 °C 1024.7 hPa East 1.4 km/h 3.2 km/h 97% 0.0 mm 11 W/m2
08:40 -0.3 °C -0.7 °C 1025.1 hPa Calm     97% 0.0 mm 33 W/m2
08:45 -0.3 °C -0.7 °C 1025.1 hPa Calm     97% 0.0 mm 33 W/m2
08:50 -0.3 °C -0.7 °C 1025.1 hPa Calm     97% 0.0 mm 37 W/m2
08:55 -0.3 °C -0.7 °C 1025.1 hPa Calm     97% 0.0 mm 42 W/m2
09:00 -0.2 °C -0.6 °C 1025.1 hPa Calm     97% 0.0 mm 47 W/m2
09:06 -0.2 °C -0.6 °C 1025.1 hPa Calm     97% 0.0 mm 54 W/m2
09:11 -0.2 °C -0.6 °C 1025.4 hPa Calm     97% 0.0 mm 47 W/m2
09:16 -0.2 °C -0.6 °C 1025.4 hPa East 1.4 km/h 1.6 km/h 97% 0.0 mm 54 W/m2
09:21 -0.2 °C -0.6 °C 1025.4 hPa Calm   1.6 km/h 97% 0.0 mm 53 W/m2
09:26 -0.2 °C -0.6 °C 1025.4 hPa East 1.4 km/h 3.2 km/h 97% 0.0 mm 56 W/m2
09:31 -0.1 °C -0.5 °C 1025.4 hPa Calm   3.2 km/h 97% 0.0 mm 74 W/m2
09:36 -0.1 °C -0.5 °C 1025.4 hPa ESE 3.2 km/h 4.8 km/h 97% 0.0 mm 84 W/m2
09:41 -0.1 °C -0.5 °C 1025.4 hPa Calm   3.2 km/h 97% 0.0 mm 81 W/m2
09:46 -0.1 °C -0.5 °C 1025.7 hPa East 3.2 km/h 3.2 km/h 97% 0.0 mm 84 W/m2
09:51 0 °C -0.4 °C 1025.4 hPa Calm   1.6 km/h 97% 0.0 mm 90 W/m2
09:56 0.1 °C -0.3 °C 1025.4 hPa East 1.4 km/h 3.2 km/h 97% 0.0 mm 95 W/m2
10:01 0.1 °C -0.3 °C 1025.4 hPa Calm   3.2 km/h 97% 0.0 mm 93 W/m2
10:06 0.1 °C -0.3 °C 1025.7 hPa ESE 3.2 km/h 3.2 km/h 97% 0.0 mm 91 W/m2
10:11 0.1 °C -0.3 °C 1025.7 hPa Calm   4.8 km/h 97% 0.0 mm 90 W/m2
10:16 0.2 °C -0.2 °C 1025.7 hPa ENE 3.2 km/h 4.8 km/h 97% 0.0 mm 98 W/m2
10:21 0.2 °C -0.2 °C 1025.4 hPa Calm   3.2 km/h 97% 0.0 mm 93 W/m2
10:26 0.3 °C -0.1 °C 1025.4 hPa East 1.4 km/h 4.8 km/h 97% 0.0 mm 102 W/m2
10:31 0.3 °C -0.1 °C 1025.4 hPa Calm   3.2 km/h 97% 0.0 mm 91 W/m2
10:36 0.3 °C -0.1 °C 1025.4 hPa East 1.4 km/h 3.2 km/h 97% 0.0 mm 91 W/m2
10:41 0.3 °C -0.1 °C 1025.4 hPa Calm   1.6 km/h 97% 0.0 mm 98 W/m2
10:46 0.4 °C 0 °C 1025.4 hPa ESE 3.2 km/h 4.8 km/h 97% 0.0 mm 102 W/m2
10:51 0.4 °C 0 °C 1025.4 hPa Calm   1.6 km/h 97% 0.0 mm 95 W/m2
10:56 0.5 °C 0.1 °C 1025.4 hPa Calm     97% 0.0 mm 95 W/m2
11:01 0.6 °C 0.2 °C 1025.4 hPa Calm   3.2 km/h 97% 0.0 mm 90 W/m2
11:06 0.7 °C 0.3 °C 1025.4 hPa East 3.2 km/h 3.2 km/h 97% 0.0 mm 104 W/m2
11:11 0.8 °C 0.4 °C 1025.4 hPa Calm   4.8 km/h 97% 0.0 mm 102 W/m2
11:16 0.8 °C 0.4 °C 1025.4 hPa ESE 1.4 km/h 3.2 km/h 97% 0.0 mm 97 W/m2
11:21 0.9 °C 0.5 °C 1025.1 hPa ENE 1.4 km/h 4.8 km/h 97% 0.0 mm 98 W/m2
11:26 0.8 °C 0.4 °C 1025.4 hPa East 3.2 km/h 4.8 km/h 97% 0.0 mm 104 W/m2
11:31 0.9 °C 0.5 °C 1025.4 hPa ENE 1.4 km/h 3.2 km/h 97% 0.0 mm 114 W/m2
11:36 0.9 °C 0.5 °C 1025.4 hPa Calm   4.8 km/h 97% 0.0 mm 118 W/m2
11:41 1.1 °C 0.7 °C 1025.4 hPa East 4.7 km/h 4.8 km/h 97% 0.0 mm 109 W/m2
11:46 1.1 °C 0.7 °C 1025.4 hPa Calm   3.2 km/h 97% 0.0 mm 116 W/m2
11:51 1.1 °C 0.7 °C 1025.4 hPa ESE 3.2 km/h 4.8 km/h 97% 0.0 mm 114 W/m2
11:56 1.2 °C 0.8 °C 1025.1 hPa East 3.2 km/h 3.2 km/h 97% 0.0 mm 121 W/m2
12:01 1.2 °C 0.8 °C 1025.4 hPa ESE 3.2 km/h 3.2 km/h 97% 0.0 mm 130 W/m2
12:06 1.2 °C 0.8 °C 1025.4 hPa Calm   3.2 km/h 97% 0.0 mm 121 W/m2
12:11 1.3 °C 0.9 °C 1025.1 hPa NE 1.4 km/h 3.2 km/h 97% 0.0 mm 120 W/m2
12:16 1.3 °C 0.9 °C 1025.1 hPa East 1.4 km/h 4.8 km/h 97% 0.0 mm 114 W/m2
12:21 1.3 °C 0.9 °C 1025.1 hPa East 3.2 km/h 3.2 km/h 97% 0.0 mm 123 W/m2
12:26 1.4 °C 1 °C 1025.1 hPa Calm   3.2 km/h 97% 0.0 mm 111 W/m2
12:31 1.6 °C 1.2 °C 1025.1 hPa East 4.7 km/h 6.4 km/h 97% 0.0 mm 116 W/m2
12:36 1.7 °C 1.3 °C 1025.1 hPa Calm   3.2 km/h 97% 0.0 mm 125 W/m2
12:41 1.7 °C 1.3 °C 1025.1 hPa ESE 3.2 km/h 4.8 km/h 97% 0.0 mm 118 W/m2
12:46 1.8 °C 1.4 °C 1025.1 hPa East 1.4 km/h 3.2 km/h 97% 0.0 mm 109 W/m2
12:51 1.7 °C 1.3 °C 1024.7 hPa Calm   4.8 km/h 97% 0.0 mm 113 W/m2
12:56 1.8 °C 1.4 °C 1024.7 hPa East 3.2 km/h 3.2 km/h 97% 0.0 mm 109 W/m2
13:01 1.8 °C 1.4 °C 1024.7 hPa Calm   3.2 km/h 97% 0.0 mm 116 W/m2
13:06 1.8 °C 1.4 °C 1024.7 hPa ESE 1.4 km/h 1.6 km/h 97% 0.0 mm 105 W/m2
13:11 1.9 °C 1.5 °C 1024.7 hPa Calm     97% 0.0 mm 120 W/m2
13:16 2.1 °C 1.7 °C 1024.7 hPa East 3.2 km/h 6.4 km/h 97% 0.0 mm 114 W/m2
13:21 2.1 °C 1.7 °C 1024.7 hPa East 3.2 km/h 3.2 km/h 97% 0.0 mm 114 W/m2
13:26 2.1 °C 1.7 °C 1024.7 hPa Calm   4.8 km/h 97% 0.0 mm 127 W/m2
13:31 2.2 °C 1.8 °C 1024.4 hPa ESE 1.4 km/h 3.2 km/h 97% 0.0 mm 134 W/m2
13:36 2.3 °C 1.9 °C 1024.4 hPa ENE 4.7 km/h 4.8 km/h 97% 0.0 mm 100 W/m2
13:41 2.3 °C 1.9 °C 1024.4 hPa Calm     97% 0.0 mm 111 W/m2
13:46 2.3 °C 1.9 °C 1024.4 hPa Calm     97% 0.0 mm 107 W/m2
13:51 2.3 °C 1.9 °C 1024.4 hPa ENE 1.4 km/h 4.8 km/h 97% 0.0 mm 98 W/m2
13:56 2.4 °C 2 °C 1024.4 hPa East 1.4 km/h 3.2 km/h 97% 0.0 mm 93 W/m2
14:01 2.4 °C 2 °C 1024.4 hPa ESE 3.2 km/h 4.8 km/h 97% 0.0 mm 102 W/m2
14:06 2.4 °C 2 °C 1024.4 hPa Calm     97% 0.0 mm 93 W/m2
14:11 2.5 °C 2.1 °C 1024.4 hPa ESE 1.4 km/h 4.8 km/h 97% 0.0 mm 83 W/m2
14:16 2.5 °C 2.1 °C 1024.4 hPa Calm   1.6 km/h 97% 0.0 mm 77 W/m2
14:21 2.4 °C 2 °C 1024.4 hPa Calm   3.2 km/h 97% 0.0 mm 93 W/m2
14:26 2.5 °C 2.1 °C 1024.4 hPa Calm   4.8 km/h 97% 0.0 mm 97 W/m2
14:31 2.5 °C 2.1 °C 1024.4 hPa ESE 4.7 km/h 4.8 km/h 97% 0.0 mm 91 W/m2
14:36 2.5 °C 2.1 °C 1024.4 hPa Calm   4.8 km/h 97% 0.0 mm 109 W/m2
14:41 2.5 °C 2.1 °C 1024.4 hPa East 1.4 km/h 6.4 km/h 97% 0.0 mm 81 W/m2
14:46 2.5 °C 2.1 °C 1024.4 hPa ENE 3.2 km/h 6.4 km/h 97% 0.0 mm 93 W/m2
14:51 2.6 °C 2.2 °C 1024.4 hPa ESE 3.2 km/h 3.2 km/h 97% 0.0 mm 100 W/m2
14:56 2.7 °C 2.3 °C 1024.4 hPa Calm   4.8 km/h 97% 0.0 mm 84 W/m2
15:01 2.7 °C 2.3 °C 1024.4 hPa Calm   1.6 km/h 97% 0.0 mm 86 W/m2
15:06 2.7 °C 2.3 °C 1024.4 hPa East 4.7 km/h 4.8 km/h 97% 0.0 mm 98 W/m2
15:11 2.7 °C 2.3 °C 1024.4 hPa East 1.4 km/h 3.2 km/h 97% 0.0 mm 95 W/m2
15:16 2.8 °C 2.4 °C 1024.4 hPa Calm     97% 0.0 mm 88 W/m2
15:21 2.8 °C 2.4 °C 1024.4 hPa Calm     97% 0.0 mm 81 W/m2
15:26 2.9 °C 2.5 °C 1024.4 hPa Calm     97% 0.0 mm 74 W/m2
15:31 3 °C 2.6 °C 1024.4 hPa Calm   1.6 km/h 97% 0.0 mm 62 W/m2
15:36 3 °C 2.6 °C 1024.4 hPa Calm   1.6 km/h 97% 0.0 mm 58 W/m2
15:41 3 °C 2.6 °C 1024.4 hPa Calm     97% 0.0 mm 60 W/m2
15:46 2.9 °C 2.5 °C 1024.4 hPa Calm     97% 0.0 mm 47 W/m2
15:51 2.9 °C 2.5 °C 1024.4 hPa Calm     97% 0.0 mm 37 W/m2
15:56 2.9 °C 2.5 °C 1024.4 hPa Calm     97% 0.0 mm 35 W/m2
16:01 2.9 °C 2.5 °C 1024.4 hPa East 1.4 km/h 3.2 km/h 97% 0.0 mm 28 W/m2
16:06 2.8 °C 2.4 °C 1024.4 hPa Calm     97% 0.0 mm 25 W/m2
16:11 2.8 °C 2.4 °C 1024.4 hPa Calm     97% 0.0 mm 19 W/m2
16:16 2.8 °C 2.4 °C 1024.4 hPa East 1.4 km/h 3.2 km/h 97% 0.0 mm 18 W/m2
16:21 2.8 °C 2.4 °C 1024.4 hPa Calm   3.2 km/h 97% 0.0 mm 16 W/m2
16:26 2.7 °C 2.3 °C 1024.4 hPa Calm   3.2 km/h 97% 0.0 mm 12 W/m2
16:31 2.7 °C 2.3 °C 1024.4 hPa Calm   1.6 km/h 97% 0.0 mm 9 W/m2
16:36 2.6 °C 2.2 °C 1024.4 hPa Calm   1.6 km/h 97% 0.0 mm 7 W/m2
16:42 2.5 °C 2.1 °C 1024.4 hPa Calm     97% 0.0 mm 5 W/m2
16:47 2.4 °C 2 °C 1024.4 hPa Calm     97% 0.0 mm 0 W/m2
16:52 2.4 °C 2 °C 1024.4 hPa Calm     97% 0.0 mm 0 W/m2
16:57 2.4 °C 2 °C 1024.4 hPa East 1.4 km/h 3.2 km/h 97% 0.0 mm 0 W/m2
17:02 2.4 °C 2 °C 1024.4 hPa Calm     97% 0.0 mm 0 W/m2
17:07 2.4 °C 2 °C 1024.4 hPa Calm   4.8 km/h 97% 0.0 mm 0 W/m2
17:12 2.3 °C 1.9 °C 1024.4 hPa Calm   3.2 km/h 97% 0.0 mm 0 W/m2
17:17 2.3 °C 1.9 °C 1024.4 hPa Calm   4.8 km/h 97% 0.0 mm 0 W/m2
17:22 2.3 °C 1.9 °C 1024.4 hPa East 1.4 km/h 3.2 km/h 97% 0.0 mm 0 W/m2
17:27 2.2 °C 1.8 °C 1024.4 hPa Calm     97% 0.0 mm 0 W/m2
17:32 2.2 °C 1.8 °C 1024.7 hPa East 1.4 km/h 3.2 km/h 97% 0.0 mm 0 W/m2
17:37 2.2 °C 1.8 °C 1024.7 hPa Calm     97% 0.0 mm 0 W/m2
17:42 2.2 °C 1.8 °C 1024.7 hPa Calm   1.6 km/h 97% 0.0 mm 0 W/m2
17:47 2.2 °C 1.8 °C 1024.7 hPa East 3.2 km/h 3.2 km/h 97% 0.0 mm 0 W/m2
17:52 2.2 °C 1.8 °C 1024.7 hPa ESE 1.4 km/h 3.2 km/h 97% 0.0 mm 0 W/m2
17:57 2.1 °C 1.7 °C 1024.7 hPa Calm     97% 0.0 mm 0 W/m2
18:02 2.1 °C 1.7 °C 1024.7 hPa Calm     97% 0.0 mm 0 W/m2
18:07 2.1 °C 1.7 °C 1024.7 hPa Calm     97% 0.0 mm 0 W/m2
18:12 2.1 °C 1.7 °C 1024.7 hPa ESE 1.4 km/h 1.6 km/h 97% 0.0 mm 0 W/m2
18:17 2.1 °C 1.7 °C 1024.7 hPa ESE 3.2 km/h 3.2 km/h 97% 0.0 mm 0 W/m2
18:22 2 °C 1.6 °C 1024.7 hPa Calm   1.6 km/h 97% 0.0 mm 0 W/m2
18:27 1.9 °C 1.5 °C 1024.7 hPa Calm     97% 0.0 mm 0 W/m2
18:32 1.9 °C 1.5 °C 1024.7 hPa Calm   1.6 km/h 97% 0.0 mm 0 W/m2
18:37 2 °C 1.6 °C 1024.7 hPa East 3.2 km/h 4.8 km/h 97% 0.0 mm 0 W/m2
18:42 1.9 °C 1.5 °C 1024.7 hPa Calm     97% 0.0 mm 0 W/m2
18:47 1.8 °C 1.4 °C 1024.7 hPa Calm   4.8 km/h 97% 0.0 mm 0 W/m2
18:52 1.8 °C 1.4 °C 1024.7 hPa Calm   1.6 km/h 97% 0.0 mm 0 W/m2
18:57 1.8 °C 1.4 °C 1024.7 hPa East 1.4 km/h 3.2 km/h 97% 0.0 mm 0 W/m2
19:02 1.8 °C 1.4 °C 1024.7 hPa Calm     97% 0.0 mm 0 W/m2
19:07 1.8 °C 1.4 °C 1024.7 hPa Calm     97% 0.0 mm 0 W/m2
19:12 1.7 °C 1.3 °C 1024.7 hPa East 1.4 km/h 3.2 km/h 97% 0.0 mm 0 W/m2
19:17 1.7 °C 1.3 °C 1024.7 hPa Calm   1.6 km/h 97% 0.0 mm 0 W/m2
19:22 1.7 °C 1.3 °C 1024.4 hPa Calm     97% 0.0 mm 0 W/m2
19:27 1.7 °C 1.3 °C 1024.4 hPa Calm   3.2 km/h 97% 0.0 mm 0 W/m2
19:32 1.6 °C 1.2 °C 1024.4 hPa Calm     97% 0.0 mm 0 W/m2
19:37 1.6 °C 1.2 °C 1024.4 hPa Calm     97% 0.0 mm 0 W/m2
19:42 1.6 °C 1.2 °C 1024.4 hPa Calm   1.6 km/h 97% 0.0 mm 0 W/m2
19:47 1.6 °C 1.2 °C 1024.4 hPa Calm   3.2 km/h 97% 0.0 mm 0 W/m2
19:52 1.6 °C 1.2 °C 1024.4 hPa ESE 3.2 km/h 3.2 km/h 97% 0.0 mm 0 W/m2
19:57 1.6 °C 1.2 °C 1024.4 hPa Calm   6.4 km/h 97% 0.0 mm 0 W/m2
20:02 1.6 °C 1.2 °C 1024.4 hPa Calm   1.6 km/h 97% 0.0 mm 0 W/m2
20:07 1.6 °C 1.2 °C 1024.4 hPa Calm   4.8 km/h 97% 0.0 mm 0 W/m2
20:12 1.6 °C 1.2 °C 1024.4 hPa Calm     97% 0.0 mm 0 W/m2
20:17 1.6 °C 1.2 °C 1024.4 hPa ESE 1.4 km/h 1.6 km/h 97% 0.0 mm 0 W/m2
20:22 1.6 °C 1.2 °C 1024.4 hPa Calm   1.6 km/h 97% 0.0 mm 0 W/m2
20:27 1.6 °C 1.2 °C 1024.4 hPa Calm   1.6 km/h 97% 0.0 mm 0 W/m2
20:33 1.6 °C 1.2 °C 1024.4 hPa East 3.2 km/h 3.2 km/h 97% 0.0 mm 0 W/m2
20:38 1.6 °C 1.2 °C 1024.4 hPa ENE 1.4 km/h 3.2 km/h 97% 0.0 mm 0 W/m2
20:43 1.6 °C 1.2 °C 1024.4 hPa Calm   1.6 km/h 97% 0.0 mm 0 W/m2
20:48 1.6 °C 1.2 °C 1024.4 hPa Calm   1.6 km/h 97% 0.0 mm 0 W/m2
20:53 1.6 °C 1.2 °C 1024.4 hPa ENE 1.4 km/h 3.2 km/h 97% 0.0 mm 0 W/m2
20:58 1.6 °C 1.2 °C 1024.4 hPa ESE 1.4 km/h 3.2 km/h 97% 0.0 mm 0 W/m2
21:03 1.6 °C 1.2 °C 1024.4 hPa Calm   1.6 km/h 97% 0.0 mm 0 W/m2
21:08 1.6 °C 1.2 °C 1024.4 hPa Calm   1.6 km/h 97% 0.0 mm 0 W/m2
21:13 1.6 °C 1.2 °C 1024.4 hPa ESE 1.4 km/h 3.2 km/h 97% 0.0 mm 0 W/m2
21:18 1.7 °C 1.3 °C 1024.0 hPa ESE 1.4 km/h 4.8 km/h 97% 0.0 mm 0 W/m2
21:23 1.7 °C 1.3 °C 1024.0 hPa Calm   1.6 km/h 97% 0.0 mm 0 W/m2
21:28 1.7 °C 1.3 °C 1024.4 hPa Calm   3.2 km/h 97% 0.0 mm 0 W/m2
21:33 1.6 °C 1.2 °C 1024.0 hPa Calm   3.2 km/h 97% 0.0 mm 0 W/m2
21:38 1.6 °C 1.2 °C 1024.0 hPa Calm   1.6 km/h 97% 0.0 mm 0 W/m2
21:43 1.6 °C 1.2 °C 1024.0 hPa Calm   3.2 km/h 97% 0.0 mm 0 W/m2
21:48 1.6 °C 1.2 °C 1024.0 hPa North 1.4 km/h 1.6 km/h 97% 0.0 mm 0 W/m2
21:53 1.6 °C 1.2 °C 1024.0 hPa North 1.4 km/h 1.6 km/h 97% 0.0 mm 0 W/m2
21:58 1.6 °C 1.2 °C 1024.0 hPa Calm   1.6 km/h 97% 0.0 mm 0 W/m2
22:03 1.5 °C 1.1 °C 1024.0 hPa Calm     97% 0.0 mm 0 W/m2
22:08 1.5 °C 1.1 °C 1024.0 hPa Calm     97% 0.0 mm 0 W/m2
22:13 1.5 °C 1.1 °C 1023.7 hPa Calm   3.2 km/h 97% 0.0 mm 0 W/m2
22:18 1.6 °C 1.2 °C 1023.7 hPa ENE 1.4 km/h 4.8 km/h 97% 0.0 mm 0 W/m2
22:23 1.5 °C 1.1 °C 1023.7 hPa ENE 1.4 km/h 1.6 km/h 97% 0.0 mm 0 W/m2
22:28 1.5 °C 1.1 °C 1023.7 hPa Calm   1.6 km/h 97% 0.0 mm 0 W/m2
22:33 1.5 °C 1.1 °C 1023.7 hPa Calm     97% 0.0 mm 0 W/m2
22:38 1.5 °C 1.1 °C 1023.7 hPa Calm   1.6 km/h 97% 0.0 mm 0 W/m2
22:43 1.5 °C 1.1 °C 1023.7 hPa Calm     97% 0.0 mm 0 W/m2
22:48 1.5 °C 1.1 °C 1023.7 hPa Calm     97% 0.0 mm 0 W/m2
22:53 1.6 °C 1.2 °C 1023.7 hPa Calm     97% 0.0 mm 0 W/m2
22:58 1.6 °C 1.2 °C 1023.7 hPa Calm   3.2 km/h 97% 0.0 mm 0 W/m2
23:03 1.6 °C 1.2 °C 1023.7 hPa Calm     97% 0.0 mm 0 W/m2
23:08 1.6 °C 1.2 °C 1023.7 hPa Calm     97% 0.0 mm 0 W/m2
23:13 1.7 °C 1.3 °C 1023.7 hPa Calm   3.2 km/h 97% 0.0 mm 0 W/m2
23:18 1.7 °C 1.3 °C 1023.7 hPa Calm     97% 0.0 mm 0 W/m2
23:23 1.7 °C 1.3 °C 1023.7 hPa Calm     97% 0.0 mm 0 W/m2
23:28 1.7 °C 1.3 °C 1023.4 hPa Calm   6.4 km/h 97% 0.0 mm 0 W/m2
23:33 1.8 °C 1.5 °C 1023.4 hPa Calm   1.6 km/h 98% 0.2 mm 0 W/m2
23:38 1.8 °C 1.5 °C 1023.4 hPa Calm   4.8 km/h 98% 0.2 mm 0 W/m2
23:43 1.8 °C 1.5 °C 1023.4 hPa Calm     98% 0.2 mm 0 W/m2
23:48 1.8 °C 1.5 °C 1023.4 hPa Calm     98% 0.2 mm 0 W/m2
23:53 1.8 °C 1.5 °C 1023.4 hPa Calm   1.6 km/h 98% 0.2 mm 0 W/m2
23:58 1.8 °C 1.5 °C 1023.4 hPa Calm     98% 0.2 mm 0 W/m2
Juneau County Weather
Compliments of Weather Underground - 4 mb